createdAt,value
2023-05-25T00:00:27.520Z,100895.24
2023-05-25T00:04:50.777Z,100894.91
2023-05-25T00:08:55.551Z,100894.85
2023-05-25T00:12:58.246Z,100900.14
2023-05-25T00:17:04.200Z,100907.91
2023-05-25T00:21:07.329Z,100908.16
2023-05-25T00:25:11.352Z,100906.02
2023-05-25T00:29:15.025Z,100914.11
2023-05-25T00:33:24.889Z,100911.09
2023-05-25T00:37:28.164Z,100905.92
2023-05-25T00:41:33.361Z,100904.21
2023-05-25T00:45:41.390Z,100904.55
2023-05-25T00:49:44.437Z,100903.03
2023-05-25T00:53:47.215Z,100902.30
2023-05-25T00:57:51.941Z,100896.12
2023-05-25T01:01:55.603Z,100897.45
2023-05-25T01:05:59.243Z,100894.89
2023-05-25T01:10:10.184Z,100904.29
2023-05-25T01:14:13.535Z,100908.73
2023-05-25T01:18:17.982Z,100914.46
2023-05-25T01:22:42.663Z,100914.94
2023-05-25T01:27:07.811Z,100914.32
2023-05-25T01:31:11.133Z,100906.91
2023-05-25T01:35:24.659Z,100908.55
2023-05-25T01:39:27.853Z,100913.91
2023-05-25T01:43:30.974Z,100913.48
2023-05-25T01:47:58.211Z,100920.31
2023-05-25T01:52:31.450Z,100921.44
2023-05-25T01:56:36.149Z,100916.80
2023-05-25T02:00:41.065Z,100919.23
2023-05-25T02:04:44.335Z,100925.70
2023-05-25T02:08:47.121Z,100918.42
2023-05-25T02:13:02.284Z,100921.88
2023-05-25T02:17:05.137Z,100924.41
2023-05-25T02:21:18.249Z,100925.98
2023-05-25T02:25:21.147Z,100925.02
2023-05-25T02:29:23.891Z,100927.04
2023-05-25T02:33:32.414Z,100927.71
2023-05-25T02:37:35.377Z,100929.98
2023-05-25T02:41:38.705Z,100931.83
2023-05-25T02:45:41.805Z,100932.77
2023-05-25T02:49:49.610Z,100927.54
2023-05-25T02:53:52.472Z,100934.29
2023-05-25T02:57:55.399Z,100935.42
2023-05-25T04:05:45.927Z,100998.38
2023-05-25T04:09:48.928Z,100997.56
2023-05-25T04:13:51.675Z,101001.45
2023-05-25T04:17:55.144Z,101000.52
2023-05-25T04:21:58.056Z,101004.33
2023-05-25T04:26:01.598Z,100998.56
2023-05-25T04:30:05.014Z,101002.67
2023-05-25T04:34:09.768Z,101010.67
2023-05-25T04:38:12.629Z,101016.42
2023-05-25T04:42:17.087Z,101017.02
2023-05-25T04:46:19.948Z,101019.94
2023-05-25T04:50:23.481Z,101022.20
2023-05-25T04:54:26.264Z,101024.78
2023-05-25T04:58:29.595Z,101024.94
2023-05-25T05:02:32.495Z,101026.56
2023-05-25T05:06:36.576Z,101029.89
2023-05-25T05:10:39.372Z,101031.27
2023-05-25T05:14:42.364Z,101028.77
2023-05-25T05:18:45.538Z,101024.79
2023-05-25T05:22:49.192Z,101022.33
2023-05-25T05:26:58.194Z,101015.08
2023-05-25T05:31:01.892Z,101015.02
2023-05-25T05:35:05.612Z,101012.58
2023-05-25T05:39:08.949Z,101012.52
2023-05-25T05:43:13.451Z,101012.77
2023-05-25T05:47:16.250Z,101015.94
2023-05-25T05:51:19.088Z,101024.61
2023-05-25T05:55:23.948Z,101020.41
2023-05-25T05:59:26.795Z,101014.76
2023-05-25T06:03:30.076Z,101014.45
2023-05-25T06:07:35.231Z,101011.68
2023-05-25T06:11:40.120Z,101015.75
2023-05-25T06:15:43.376Z,101011.99
2023-05-25T06:19:49.910Z,101008.97
2023-05-25T06:23:52.772Z,101006.56
2023-05-25T06:27:55.963Z,101005.90
2023-05-25T06:31:59.535Z,101004.50
2023-05-25T06:36:02.445Z,101004.80
2023-05-25T06:40:05.824Z,101009.31
2023-05-25T06:44:09.294Z,101000.31
2023-05-25T06:48:12.197Z,100993.49
2023-05-25T06:52:15.115Z,100990.23
2023-05-25T06:56:18.607Z,100987.31
2023-05-25T07:00:21.549Z,100989.98
2023-05-25T07:04:24.592Z,100988.40
2023-05-25T07:08:27.340Z,100988.58
2023-05-25T07:12:30.601Z,100988.60
2023-05-25T07:16:34.413Z,100996.73
2023-05-25T07:20:38.247Z,101001.73
2023-05-25T07:24:41.121Z,101001.84
2023-05-25T07:28:50.025Z,101000.33
2023-05-25T07:32:52.967Z,101011.40
2023-05-25T07:36:55.890Z,101016.16
2023-05-25T07:40:58.827Z,101015.32
2023-05-25T07:45:02.475Z,101016.58
2023-05-25T07:49:06.690Z,101020.11
2023-05-25T07:53:09.435Z,101018.75
2023-05-25T07:57:12.221Z,101020.41
2023-05-25T08:01:16.241Z,101017.71
2023-05-25T08:05:18.986Z,101016.89
2023-05-25T08:09:21.775Z,101014.77
2023-05-25T08:30:18.217Z,101003.38
2023-05-25T08:34:21.088Z,101008.50
2023-05-25T08:38:26.099Z,101009.23
2023-05-25T08:42:29.535Z,101009.16
2023-05-25T08:46:32.702Z,101016.83
2023-05-25T08:50:36.200Z,101016.50
2023-05-25T08:54:40.258Z,101019.76
2023-05-25T08:58:56.889Z,101018.78
2023-05-25T09:03:33.444Z,101013.48
2023-05-25T09:07:36.262Z,101017.43
2023-05-25T09:11:42.216Z,101017.37
2023-05-25T09:15:46.459Z,101012.40
2023-05-25T09:19:50.220Z,101015.06
2023-05-25T09:23:53.357Z,101016.13
2023-05-25T09:28:10.208Z,101015.45
2023-05-25T09:32:28.079Z,101010.79
2023-05-25T09:36:32.733Z,101015.50
2023-05-25T09:40:38.052Z,101013.83
2023-05-25T09:44:42.693Z,101011.56
2023-05-25T09:48:45.797Z,101009.40
2023-05-25T09:53:00.535Z,101016.49
2023-05-25T09:57:05.237Z,101021.79
2023-05-25T10:01:08.192Z,101023.80
2023-05-25T10:05:11.020Z,101028.25
2023-05-25T10:09:15.476Z,101019.35
2023-05-25T10:13:25.112Z,101016.84
2023-05-25T10:17:31.890Z,101016.01
2023-05-25T10:21:38.036Z,101014.65
2023-05-25T10:25:44.988Z,101014.61
2023-05-25T10:29:49.778Z,101012.77
2023-05-25T10:33:52.903Z,101014.73
2023-05-25T10:37:56.977Z,101013.15
2023-05-25T10:42:02.168Z,101010.89
2023-05-25T10:46:06.713Z,101012.94
2023-05-25T10:50:21.153Z,101011.44
2023-05-25T10:54:28.996Z,101013.45
2023-05-25T10:58:32.829Z,101000.77
2023-05-25T11:02:50.558Z,101006.60
2023-05-25T11:07:04.342Z,100997.75
2023-05-25T11:11:07.084Z,100990.58
2023-05-25T11:15:12.610Z,100984.81
2023-05-25T11:19:15.531Z,100986.09
2023-05-25T11:23:25.098Z,100985.07
2023-05-25T11:27:30.481Z,100988.27
2023-05-25T11:31:41.455Z,100984.80
2023-05-25T11:35:48.954Z,100977.94
2023-05-25T11:39:52.740Z,100973.77
2023-05-25T11:43:57.040Z,100971.58
2023-05-25T11:47:59.973Z,100972.90
2023-05-25T11:52:08.816Z,100968.42
2023-05-25T11:56:15.995Z,100968.66
2023-05-25T12:00:43.483Z,100972.07
2023-05-25T12:05:01.932Z,100965.34
2023-05-25T12:09:11.926Z,100963.05
2023-05-25T12:13:15.063Z,100957.95
2023-05-25T12:17:21.550Z,100954.39
2023-05-25T12:21:24.903Z,100948.27
2023-05-25T12:25:38.584Z,100941.25
2023-05-25T12:29:53.161Z,100938.58
2023-05-25T12:34:10.104Z,100933.86
2023-05-25T12:38:22.203Z,100934.04
2023-05-25T12:42:30.704Z,100939.68
2023-05-25T12:46:33.578Z,100931.23
2023-05-25T12:51:12.125Z,100926.73
2023-05-25T12:55:43.177Z,100919.98
2023-05-25T12:59:47.002Z,100915.93
2023-05-25T13:03:49.828Z,100906.16
2023-05-25T13:07:54.723Z,100898.90
2023-05-25T13:11:58.486Z,100896.48
2023-05-25T13:16:01.486Z,100895.52
2023-05-25T13:20:04.709Z,100890.60
2023-05-25T13:24:07.661Z,100891.98
2023-05-25T13:28:15.919Z,100890.75
2023-05-25T13:32:19.295Z,100882.14
2023-05-25T13:36:20.979Z,100873.98
2023-05-25T13:40:24.373Z,100874.65
2023-05-25T13:44:27.192Z,100868.50
2023-05-25T13:48:30.468Z,100871.05
2023-05-25T13:52:37.017Z,100873.67
2023-05-25T14:01:21.429Z,100867.38
2023-05-25T14:05:26.198Z,100862.30
2023-05-25T14:09:31.100Z,100863.42
2023-05-25T14:13:38.086Z,100855.77
2023-05-25T14:17:41.783Z,100849.92
2023-05-25T14:21:45.051Z,100845.40
2023-05-25T14:25:49.973Z,100848.39
2023-05-25T14:29:53.276Z,100845.27
2023-05-25T14:33:56.374Z,100840.30
2023-05-25T14:37:59.512Z,100839.67
2023-05-25T14:42:06.182Z,100841.86
2023-05-25T14:46:10.732Z,100835.27
2023-05-25T14:50:13.968Z,100829.83
2023-05-25T14:54:17.594Z,100830.19
2023-05-25T14:58:20.902Z,100836.61
2023-05-25T15:02:24.563Z,100836.86
2023-05-25T15:06:27.962Z,100831.66
2023-05-25T15:10:31.287Z,100831.79
2023-05-25T15:14:35.367Z,100830.06
2023-05-25T15:18:38.747Z,100830.48
2023-05-25T15:22:42.047Z,100830.25
2023-05-25T15:26:45.575Z,100827.61
2023-05-25T15:30:48.967Z,100824.80
2023-05-25T15:34:52.171Z,100819.70
2023-05-25T15:38:56.014Z,100820.16
2023-05-25T15:42:59.359Z,100819.85
2023-05-25T15:47:02.604Z,100818.79
2023-05-25T15:51:06.042Z,100823.95
2023-05-25T15:55:09.599Z,100825.52
2023-05-25T15:59:12.873Z,100817.11
2023-05-25T16:03:16.456Z,100818.38
2023-05-25T16:07:19.893Z,100809.67
2023-05-25T16:11:24.194Z,100811.27
2023-05-25T16:15:27.537Z,100806.56
2023-05-25T16:19:30.791Z,100814.58
2023-05-25T16:23:34.892Z,100816.92
2023-05-25T16:27:38.493Z,100813.57
2023-05-25T16:31:42.004Z,100807.67
2023-05-25T16:35:45.744Z,100807.59
2023-05-25T16:39:49.277Z,100804.11
2023-05-25T16:43:52.504Z,100806.02
2023-05-25T16:47:55.810Z,100804.07
2023-05-25T16:51:59.363Z,100805.10
2023-05-25T16:56:02.741Z,100804.15
2023-05-25T17:00:06.884Z,100800.63
2023-05-25T17:04:10.521Z,100806.20
2023-05-25T17:08:14.025Z,100805.13
2023-05-25T17:12:17.462Z,100802.60
2023-05-25T17:16:21.460Z,100801.48
2023-05-25T17:20:25.055Z,100795.42
2023-05-25T17:24:28.399Z,100803.97
2023-05-25T17:28:33.084Z,100800.16
2023-05-25T17:32:38.488Z,100806.98
2023-05-25T17:36:42.901Z,100808.67
2023-05-25T17:40:47.593Z,100808.80
2023-05-25T17:44:51.660Z,100808.49
2023-05-25T17:48:55.093Z,100808.52
2023-05-25T17:52:58.475Z,100808.47
2023-05-25T17:57:05.184Z,100807.68
2023-05-25T18:01:09.164Z,100809.60
2023-05-25T18:05:12.911Z,100812.30
2023-05-25T18:09:17.017Z,100809.81
2023-05-25T18:13:20.315Z,100812.55
2023-05-25T18:17:23.602Z,100811.67
2023-05-25T18:21:27.111Z,100816.17
2023-05-25T18:25:30.530Z,100813.53
2023-05-25T18:29:34.050Z,100815.79
2023-05-25T18:33:37.566Z,100815.86
2023-05-25T18:37:41.456Z,100818.68
2023-05-25T18:41:44.842Z,100823.54
2023-05-25T18:45:48.327Z,100827.60
2023-05-25T18:49:51.921Z,100829.73
2023-05-25T18:53:55.191Z,100834.65
2023-05-25T18:57:58.451Z,100840.08
2023-05-25T19:02:01.890Z,100845.85
2023-05-25T19:06:05.470Z,100853.94
2023-05-25T19:10:09.493Z,100852.98
2023-05-25T19:14:12.895Z,100853.65
2023-05-25T19:18:17.151Z,100853.13
2023-05-25T19:22:21.068Z,100857.06
2023-05-25T19:26:24.557Z,100861.27
2023-05-25T19:30:28.095Z,100863.56
2023-05-25T19:34:31.951Z,100871.36
2023-05-25T19:38:41.170Z,100872.02
2023-05-25T19:42:45.234Z,100874.96
2023-05-25T19:46:48.888Z,100878.77
2023-05-25T19:50:53.104Z,100878.05
2023-05-25T19:54:56.380Z,100875.49
2023-05-25T19:58:59.614Z,100880.13
2023-05-25T20:03:03.176Z,100885.33
2023-05-25T20:07:06.858Z,100888.95
2023-05-25T20:11:10.072Z,100884.92
2023-05-25T20:15:13.481Z,100888.20
2023-05-25T20:19:19.035Z,100892.91
2023-05-25T20:23:22.240Z,100896.19
2023-05-25T20:27:25.798Z,100900.60
2023-05-25T20:31:29.005Z,100908.73
2023-05-25T20:35:33.528Z,100909.40
2023-05-25T20:39:39.952Z,100911.67
2023-05-25T20:43:43.214Z,100912.88
2023-05-25T20:47:46.472Z,100913.38
2023-05-25T20:51:50.733Z,100907.30
2023-05-25T20:55:54.135Z,100909.90
2023-05-25T21:00:00.019Z,100911.14
2023-05-25T21:04:03.348Z,100916.73
2023-05-25T21:08:06.885Z,100917.38
2023-05-25T21:12:10.370Z,100920.61
2023-05-25T21:16:15.420Z,100923.83
2023-05-25T21:20:20.238Z,100924.08
2023-05-25T21:24:24.165Z,100925.77
2023-05-25T21:28:27.636Z,100927.46
2023-05-25T21:32:32.488Z,100928.72
2023-05-25T21:36:37.960Z,100927.89
2023-05-25T21:40:42.525Z,100927.06
2023-05-25T21:44:46.100Z,100927.04
2023-05-25T21:48:49.595Z,100928.69
2023-05-25T21:52:53.983Z,100929.65
2023-05-25T21:56:57.857Z,100935.34
2023-05-25T22:01:01.166Z,100934.91
2023-05-25T22:05:04.916Z,100939.77
2023-05-25T22:09:08.410Z,100939.97
2023-05-25T22:13:12.004Z,100943.35
2023-05-25T22:17:17.471Z,100943.95
2023-05-25T22:21:21.094Z,100947.59
2023-05-25T22:25:25.475Z,100953.26
2023-05-25T22:29:28.916Z,100950.65
2023-05-25T22:33:32.141Z,100951.41
2023-05-25T22:37:35.762Z,100953.70
2023-05-25T22:41:39.044Z,100954.42
2023-05-25T22:45:42.564Z,100950.97
2023-05-25T22:49:45.973Z,100954.44
2023-05-25T22:53:49.683Z,100955.63
2023-05-25T22:57:52.866Z,100954.27
2023-05-25T23:01:56.368Z,100955.48
2023-05-25T23:05:59.823Z,100950.75
2023-05-25T23:10:03.367Z,100956.20
2023-05-25T23:14:08.069Z,100956.91
2023-05-25T23:18:15.587Z,100957.46
2023-05-25T23:22:19.197Z,100963.23
2023-05-25T23:26:22.455Z,100964.85
2023-05-25T23:30:29.096Z,100965.68
2023-05-25T23:34:42.516Z,100963.63
2023-05-25T23:38:47.181Z,100965.73
2023-05-25T23:42:51.651Z,100960.86
2023-05-25T23:46:55.091Z,100964.25
2023-05-25T23:50:58.820Z,100965.36
2023-05-25T23:55:03.057Z,100967.67
2023-05-25T23:59:06.594Z,100969.95
